Time;durP1;ratioP1;P1;durP2;ratioP2;P2;SDS_P1;SDS_P2;PMS_P1;PMS_P2;Temp;Humidity;BMP_temperature;BMP_pressure;BME280_temperature;BME280_humidity;BME280_pressure;Samples;Min_cycle;Max_cycle;Signal;HPM_P1;HPM_P2
2022/06/20 00:00:48;;;;;;;9.00;4.68;;;;;;;19.59;nan;100403.06;5042951;28;20509;-72
2022/06/20 00:03:22;;;;;;;7.63;4.97;;;;;;;19.57;nan;100402.56;5040960;28;20436;-71
2022/06/20 00:05:48;;;;;;;7.13;4.47;;;;;;;19.58;nan;100406.81;5022398;28;20513;-71
2022/06/20 00:08:13;;;;;;;9.90;5.07;;;;;;;19.53;nan;100405.00;5053480;28;20064;-71
2022/06/20 00:10:42;;;;;;;9.15;5.00;;;;;;;19.48;nan;100399.72;5038877;28;20033;-72
2022/06/20 00:13:18;;;;;;;5.78;5.05;;;;;;;19.41;nan;100396.59;5035703;28;20049;-72
2022/06/20 00:15:46;;;;;;;5.38;4.88;;;;;;;19.33;nan;100393.44;5050568;28;20536;-71
2022/06/20 00:18:11;;;;;;;5.68;4.82;;;;;;;19.36;nan;100399.31;5029249;28;20041;-71
2022/06/20 00:20:37;;;;;;;6.88;4.70;;;;;;;19.35;nan;100395.84;5049637;28;20025;-72
2022/06/20 00:23:02;;;;;;;13.57;5.78;;;;;;;19.36;nan;100405.44;5033481;28;20483;-71
2022/06/20 00:25:30;;;;;;;7.43;5.53;;;;;;;19.34;nan;100395.03;5049149;28;20038;-72
2022/06/20 00:27:55;;;;;;;8.65;5.03;;;;;;;19.34;nan;100394.25;5061117;28;20032;-72
2022/06/20 00:30:21;;;;;;;11.20;5.70;;;;;;;19.32;nan;100388.38;5050933;28;20025;-71
2022/06/20 00:32:47;;;;;;;7.45;5.38;;;;;;;19.31;nan;100381.47;5050711;28;20034;-72
2022/06/20 00:35:12;;;;;;;8.60;5.32;;;;;;;19.22;nan;100367.16;5042764;28;20163;-72
2022/06/20 00:37:38;;;;;;;7.28;5.18;;;;;;;19.25;nan;100371.91;5042418;28;20120;-71
2022/06/20 00:40:18;;;;;;;10.23;5.65;;;;;;;19.21;nan;100371.69;5020406;28;20033;-71
2022/06/20 00:42:44;;;;;;;7.57;5.90;;;;;;;19.22;nan;100377.81;5041591;28;20030;-71
2022/06/20 00:45:12;;;;;;;6.80;5.75;;;;;;;19.13;nan;100372.31;5045453;28;20033;-71
2022/06/20 00:47:37;;;;;;;6.55;5.50;;;;;;;19.01;nan;100358.53;5045611;28;20037;-72
2022/06/20 00:50:10;;;;;;;9.18;5.75;;;;;;;18.94;nan;100366.09;5032340;28;20116;-73
2022/06/20 00:52:48;;;;;;;6.05;5.35;;;;;;;18.88;nan;100371.47;5051083;28;20044;-72
2022/06/20 00:55:25;;;;;;;9.05;5.70;;;;;;;18.69;nan;100363.34;5050831;28;20045;-72
2022/06/20 00:57:55;;;;;;;7.85;5.90;;;;;;;18.69;nan;100362.53;5049519;28;20033;-73
2022/06/20 01:00:25;;;;;;;10.00;5.28;;;;;;;18.71;nan;100363.84;5043815;28;20511;-71
2022/06/20 01:03:14;;;;;;;10.25;5.50;;;;;;;18.77;nan;100371.84;5049606;28;20124;-72
2022/06/20 01:05:55;;;;;;;9.70;5.85;;;;;;;18.78;nan;100373.44;5016417;28;20042;-72
2022/06/20 01:08:25;;;;;;;10.65;7.00;;;;;;;18.75;nan;100376.63;5053340;28;20048;-71
2022/06/20 01:10:54;;;;;;;11.75;5.82;;;;;;;18.70;nan;100367.59;5041053;28;20040;-71
2022/06/20 01:13:20;;;;;;;;;;;;;;;18.70;nan;100366.81;5049768;28;20094;-71
2022/06/20 01:15:49;;;;;;;9.40;5.80;;;;;;;18.69;nan;100367.88;5036769;28;19992;-71
2022/06/20 01:18:22;;;;;;;11.70;6.30;;;;;;;18.68;nan;100366.28;5033886;28;20053;-71
2022/06/20 01:20:50;;;;;;;8.30;6.30;;;;;;;18.62;nan;100359.41;5033716;28;20395;-71
2022/06/20 01:23:23;;;;;;;7.53;6.13;;;;;;;18.64;nan;100362.59;5019558;28;20045;-74
2022/06/20 01:26:08;;;;;;;8.25;6.40;;;;;;;18.62;nan;100373.53;5031408;28;20084;-73
2022/06/20 01:28:38;;;;;;;7.13;5.88;;;;;;;18.43;nan;100353.94;5024069;28;20091;-72
2022/06/20 01:31:05;;;;;;;8.93;6.22;;;;;;;18.49;nan;100371.50;5051560;28;20032;-72
2022/06/20 01:33:31;;;;;;;10.38;6.63;;;;;;;18.35;nan;100354.56;5039198;28;20038;-72
2022/06/20 01:38:44;;;;;;;11.48;6.53;;;;;;;18.24;nan;100362.63;5041329;28;20036;-72
2022/06/20 01:43:58;;;;;;;9.18;6.28;;;;;;;18.18;nan;100358.38;5040360;28;20037;-72
2022/06/20 01:46:32;;;;;;;;;;;;;;;18.14;nan;100356.53;5038592;28;20029;-73
2022/06/20 01:49:08;;;;;;;7.40;5.95;;;;;;;17.96;nan;100348.13;5052142;28;20369;-72
2022/06/20 01:51:58;;;;;;;9.10;6.63;;;;;;;18.07;nan;100367.50;5048380;28;20033;-72
2022/06/20 01:54:28;;;;;;;9.50;6.20;;;;;;;17.99;nan;100360.09;5044197;28;20042;-73
2022/06/20 01:56:54;;;;;;;10.18;6.85;;;;;;;17.95;nan;100361.72;5031485;28;20033;-72
2022/06/20 01:59:24;;;;;;;8.88;6.55;;;;;;;17.86;nan;100356.16;5047570;28;20501;-72
2022/06/20 02:01:51;;;;;;;7.13;6.20;;;;;;;17.74;nan;100360.97;5052129;28;20033;-72
2022/06/20 02:04:20;;;;;;;7.60;6.22;;;;;;;17.74;nan;100361.81;5043545;28;20056;-72
2022/06/20 02:06:48;;;;;;;6.97;6.00;;;;;;;17.73;nan;100362.06;5023884;28;20400;-72
2022/06/20 02:09:14;;;;;;;8.00;6.40;;;;;;;17.61;nan;100351.72;5050239;28;20040;-73
2022/06/20 02:11:41;;;;;;;8.52;6.35;;;;;;;17.56;nan;100357.88;5050044;28;20040;-72
2022/06/20 02:14:35;;;;;;;10.88;7.03;;;;;;;17.54;nan;100351.22;5041612;28;20049;-72
2022/06/20 02:17:06;;;;;;;11.63;6.65;;;;;;;17.39;nan;100341.44;5045476;28;20025;-72
2022/06/20 02:19:36;;;;;;;10.27;6.30;;;;;;;17.37;nan;100346.22;5042520;28;20110;-72
2022/06/20 02:22:06;;;;;;;7.60;5.95;;;;;;;17.44;nan;100368.03;5046983;28;20410;-72
2022/06/20 02:24:35;;;;;;;9.38;6.28;;;;;;;17.34;nan;100352.88;5049411;28;20090;-72
2022/06/20 02:27:03;;;;;;;10.25;6.10;;;;;;;17.36;nan;100357.94;5041331;28;20078;-72
2022/06/20 02:29:30;;;;;;;9.63;6.05;;;;;;;17.39;nan;100357.41;5034980;28;20040;-72
2022/06/20 02:32:10;;;;;;;10.90;6.95;;;;;;;17.34;nan;100358.22;5034026;28;20037;-72
2022/06/20 02:34:35;;;;;;;;;;;;;;;17.33;nan;100361.91;5039902;28;20022;-72
2022/06/20 02:37:09;;;;;;;10.43;6.22;;;;;;;17.32;nan;100362.22;5061442;28;19913;-72
2022/06/20 02:39:37;;;;;;;11.52;6.22;;;;;;;17.27;nan;100354.25;5034534;28;20465;-72
2022/06/20 02:42:18;;;;;;;12.00;6.43;;;;;;;17.28;nan;100356.63;5034913;28;20052;-73
2022/06/20 02:44:47;;;;;;;11.00;6.70;;;;;;;17.29;nan;100360.88;5018935;28;20041;-71
2022/06/20 02:47:14;;;;;;;11.85;6.53;;;;;;;17.28;nan;100361.16;5036184;28;20124;-72
2022/06/20 02:49:42;;;;;;;10.77;6.50;;;;;;;17.25;nan;100356.38;5035674;28;20034;-73
2022/06/20 02:52:14;;;;;;;10.02;6.72;;;;;;;17.24;nan;100360.91;5026807;28;20037;-72
2022/06/20 02:54:40;;;;;;;12.77;6.45;;;;;;;17.13;nan;100346.03;5032085;28;20057;-73
2022/06/20 02:57:18;;;;;;;11.20;6.93;;;;;;;17.22;nan;100360.38;5036442;28;20116;-72
2022/06/20 02:59:48;;;;;;;13.40;6.80;;;;;;;17.14;nan;100348.44;5040978;28;20041;-72
2022/06/20 03:02:17;;;;;;;7.97;6.05;;;;;;;17.26;nan;100373.94;5033467;28;20033;-73
2022/06/20 03:04:45;;;;;;;11.40;6.35;;;;;;;17.19;nan;100360.88;5040921;28;20033;-72
2022/06/20 03:07:21;;;;;;;12.55;6.60;;;;;;;17.27;nan;100367.56;5035175;28;20037;-71
2022/06/20 03:09:51;;;;;;;12.45;6.95;;;;;;;17.26;nan;100364.06;5028651;28;20024;-71
2022/06/20 03:12:17;;;;;;;11.80;6.32;;;;;;;17.17;nan;100353.19;5032863;28;20711;-72
2022/06/20 03:14:51;;;;;;;10.43;6.65;;;;;;;17.17;nan;100358.53;5035801;28;20065;-73
2022/06/20 03:17:19;;;;;;;8.30;5.88;;;;;;;17.15;nan;100355.31;5036690;28;20029;-72
2022/06/20 03:19:48;;;;;;;8.13;6.07;;;;;;;17.18;nan;100362.75;5038846;28;20030;-72
2022/06/20 03:22:18;;;;;;;10.05;6.00;;;;;;;17.15;nan;100365.19;5035422;28;20443;-72
2022/06/20 03:24:45;;;;;;;9.10;6.68;;;;;;;17.13;nan;100352.13;5037503;28;20040;-71
2022/06/20 03:27:15;;;;;;;7.32;6.03;;;;;;;17.13;nan;100349.47;5044833;28;20068;-71
2022/06/20 03:29:44;;;;;;;10.27;6.47;;;;;;;16.93;nan;100321.06;5052667;28;20490;-72
2022/06/20 03:32:10;;;;;;;12.93;6.70;;;;;;;17.09;nan;100342.28;5049688;28;20479;-71
2022/06/20 03:34:36;;;;;;;11.93;6.50;;;;;;;17.14;nan;100348.44;5049869;28;20025;-71
2022/06/20 03:37:02;;;;;;;9.70;6.07;;;;;;;16.97;nan;100315.97;5052447;28;20020;-71
2022/06/20 03:39:29;;;;;;;11.35;6.15;;;;;;;17.19;nan;100339.59;5040674;28;20483;-72
2022/06/20 03:41:54;;;;;;;9.88;5.90;;;;;;;17.16;nan;100329.50;5055441;28;20074;-71
2022/06/20 03:44:24;;;;;;;11.57;5.90;;;;;;;17.23;nan;100327.34;5048007;28;20041;-71
2022/06/20 03:46:57;;;;;;;10.32;6.50;;;;;;;17.30;nan;100327.09;5050484;28;20037;-72
2022/06/20 03:49:37;;;;;;;9.13;6.50;;;;;;;17.35;nan;100325.19;5031025;28;20028;-72
2022/06/20 03:52:08;;;;;;;;;;;;;;;17.42;nan;100319.59;5054054;28;20061;-72
2022/06/20 03:55:12;;;;;;;9.50;6.10;;;;;;;17.47;nan;100311.56;5042188;28;19967;-72
2022/06/20 03:58:00;;;;;;;9.43;5.63;;;;;;;17.54;nan;100312.06;4993694;28;20042;-73
2022/06/20 04:00:37;;;;;;;10.23;5.97;;;;;;;17.59;nan;100304.06;4989466;28;20052;-73
2022/06/20 04:03:10;;;;;;;10.98;6.28;;;;;;;17.67;nan;100307.22;4991485;28;20041;-72
2022/06/20 04:05:46;;;;;;;10.40;5.90;;;;;;;17.75;nan;100306.66;4971720;28;20509;-68
2022/06/20 04:08:20;;;;;;;10.57;5.85;;;;;;;17.68;nan;100290.97;4986328;28;20120;-69
2022/06/20 04:11:00;;;;;;;8.75;5.68;;;;;;;17.83;nan;100304.22;4990100;28;20911;-74
2022/06/20 04:13:50;;;;;;;9.60;5.85;;;;;;;17.84;nan;100300.50;4991679;28;20062;-72
2022/06/20 04:16:24;;;;;;;15.93;5.57;;;;;;;17.96;nan;100296.72;4990281;28;20034;-73
2022/06/20 04:19:13;;;;;;;7.30;5.18;;;;;;;18.06;nan;100302.75;4976173;28;20030;-76
2022/06/20 04:21:55;;;;;;;7.07;5.00;;;;;;;18.21;nan;100306.41;4973126;28;20137;-73
2022/06/20 04:25:04;;;;;;;10.32;5.30;;;;;;;18.30;nan;100312.72;4987701;28;20042;-74
2022/06/20 04:27:38;;;;;;;8.95;5.00;;;;;;;18.17;nan;100287.50;4933565;29;20438;-73
2022/06/20 04:30:13;;;;;;;8.52;5.05;;;;;;;18.45;nan;100309.94;4933892;29;20187;-72
2022/06/20 04:32:57;;;;;;;8.15;5.10;;;;;;;18.41;nan;100290.25;4967559;28;20046;-72
2022/06/20 04:35:28;;;;;;;12.07;5.35;;;;;;;18.62;nan;100309.50;4967817;28;20030;-71
2022/06/20 04:37:56;;;;;;;8.63;5.10;;;;;;;18.61;nan;100285.81;4967028;28;20477;-71
2022/06/20 04:40:30;;;;;;;9.93;4.90;;;;;;;18.80;nan;100300.06;4967514;28;20047;-70
2022/06/20 04:43:02;;;;;;;7.97;4.55;;;;;;;18.92;nan;100303.13;4970308;28;20034;-71
2022/06/20 04:45:40;;;;;;;9.02;4.85;;;;;;;19.03;nan;100303.00;4972806;28;20818;-70
2022/06/20 04:48:15;;;;;;;7.95;4.82;;;;;;;19.14;nan;100312.50;4971601;28;20062;-71
2022/06/20 04:50:46;;;;;;;5.95;4.97;;;;;;;19.09;nan;100294.69;4952334;28;20039;-69
2022/06/20 04:53:16;;;;;;;9.30;5.10;;;;;;;19.32;nan;100311.78;4963488;28;20050;-71
2022/06/20 04:55:46;;;;;;;19.58;5.88;;;;;;;19.41;nan;100303.13;4968422;28;20027;-71
2022/06/20 04:58:17;;;;;;;9.38;5.00;;;;;;;19.60;nan;100305.81;4972660;28;20082;-70
2022/06/20 05:00:44;;;;;;;8.85;5.00;;;;;;;19.59;nan;100299.69;4984901;28;20082;-71
2022/06/20 05:03:27;;;;;;;14.63;5.55;;;;;;;19.62;nan;100287.63;5041123;28;20028;-73
2022/06/20 05:05:56;;;;;;;14.07;5.00;;;;;;;19.82;nan;100314.09;5038637;28;20037;-70
2022/06/20 05:08:29;;;;;;;12.73;5.07;;;;;;;19.97;nan;100311.22;5042348;28;20068;-70
2022/06/20 05:11:22;;;;;;;8.45;5.00;;;;;;;20.09;nan;100310.78;5043355;28;20052;-70
2022/06/20 05:13:55;;;;;;;7.10;4.93;;;;;;;20.10;nan;100301.66;5042214;28;20048;-70
2022/06/20 05:16:25;;;;;;;9.07;4.90;;;;;;;20.32;nan;100322.44;5034993;28;20048;-71
2022/06/20 05:19:00;;;;;;;6.47;4.80;;;;;;;20.34;nan;100319.47;5042679;28;20030;-70
2022/06/20 05:21:36;;;;;;;10.77;4.70;;;;;;;20.50;nan;100322.72;5033847;28;20094;-70
2022/06/20 05:24:13;;;;;;;12.98;4.95;;;;;;;20.60;nan;100327.91;5034418;28;20514;-69
2022/06/20 05:26:42;;;;;;;20.50;5.07;;;;;;;20.62;nan;100328.41;5047566;28;20044;-70
2022/06/20 05:29:15;;;;;;;8.50;4.78;;;;;;;20.81;nan;100339.84;5040119;28;20061;-70
2022/06/20 05:34:10;;;;;;;11.68;4.80;;;;;;;20.96;nan;100335.31;5551399;23;20214;-69
2022/06/20 05:37:05;;;;;;;14.67;5.07;;;;;;;21.08;nan;100340.19;4964113;28;20039;-69
2022/06/20 05:39:48;;;;;;;5.50;4.35;;;;;;;21.20;nan;100343.16;4968792;28;20042;-69
2022/06/20 05:42:16;;;;;;;7.75;4.70;;;;;;;21.34;nan;100330.56;4970878;28;20034;-69
2022/06/20 05:44:42;;;;;;;7.15;4.53;;;;;;;21.50;nan;100332.94;4967547;28;20042;-69
2022/06/20 05:47:23;;;;;;;7.97;4.57;;;;;;;21.63;nan;100318.75;4963917;28;20026;-69
2022/06/20 05:49:56;;;;;;;10.07;4.30;;;;;;;21.71;nan;100280.50;4964732;28;20096;-69
2022/06/20 05:52:25;;;;;;;7.85;4.10;;;;;;;21.84;nan;100271.66;4961932;28;20761;-69
2022/06/20 05:55:04;;;;;;;;;;;;;;;22.01;nan;100281.72;4964453;28;20069;-70
2022/06/20 05:57:33;;;;;;;10.07;4.70;;;;;;;22.06;nan;100283.47;4966897;28;19925;-70
2022/06/20 06:00:16;;;;;;;11.02;4.75;;;;;;;22.21;nan;100274.28;4947032;28;20039;-69
2022/06/20 06:02:47;;;;;;;10.48;4.68;;;;;;;22.36;nan;100292.69;4953816;28;20508;-71
2022/06/20 06:05:15;;;;;;;14.55;4.40;;;;;;;22.47;nan;100272.56;4965337;28;20042;-73
2022/06/20 06:07:46;;;;;;;8.95;4.53;;;;;;;22.65;nan;100280.69;4965969;28;20564;-72
2022/06/20 06:10:43;;;;;;;6.80;4.03;;;;;;;22.78;nan;100293.25;4969061;28;20105;-73
2022/06/20 06:13:20;;;;;;;10.60;4.07;;;;;;;22.99;nan;100290.03;4967245;28;20395;-73
2022/06/20 06:19:09;;;;;;;7.97;4.00;;;;;;;23.34;nan;100229.91;4964961;28;20053;-72
2022/06/20 06:21:35;;;;;;;12.20;3.63;;;;;;;23.47;nan;100268.50;4966262;28;20030;-72
2022/06/20 06:24:03;;;;;;;11.00;4.28;;;;;;;23.55;nan;100269.59;4955821;28;20065;-72
2022/06/20 06:26:29;;;;;;;4.60;3.33;;;;;;;23.66;nan;100253.97;4963485;28;20085;-71
2022/06/20 06:28:55;;;;;;;6.30;3.30;;;;;;;23.69;nan;100275.63;4965446;28;20034;-72
2022/06/20 06:31:26;;;;;;;7.47;3.65;;;;;;;23.79;nan;100312.19;4964752;28;20039;-73
2022/06/20 06:34:11;;;;;;;8.43;3.90;;;;;;;23.90;nan;100289.25;4954907;28;20042;-72
2022/06/20 06:36:46;;;;;;;7.80;3.60;;;;;;;24.02;nan;100309.34;4966663;28;20039;-72
2022/06/20 06:39:28;;;;;;;6.82;3.00;;;;;;;24.12;nan;100277.53;4968312;28;20066;-74
2022/06/20 06:41:59;;;;;;;3.28;2.95;;;;;;;24.17;nan;100271.19;4955412;28;20444;-73
2022/06/20 06:44:31;;;;;;;11.63;3.47;;;;;;;24.31;nan;100281.78;4962532;28;20088;-72
2022/06/20 06:46:57;;;;;;;9.25;3.00;;;;;;;24.38;nan;100269.41;4962534;28;20400;-73
2022/06/20 06:49:58;;;;;;;9.45;3.13;;;;;;;24.58;nan;100261.78;4964841;28;20031;-73
2022/06/20 06:52:40;;;;;;;4.88;2.85;;;;;;;24.62;nan;100295.03;4924123;28;20378;-73
2022/06/20 06:55:22;;;;;;;3.40;2.70;;;;;;;24.69;nan;100249.53;4941964;28;20035;-68
2022/06/20 06:57:54;;;;;;;6.50;2.58;;;;;;;24.70;nan;100253.81;4945592;28;20093;-69
2022/06/20 07:00:20;;;;;;;4.18;2.45;;;;;;;24.75;nan;100245.53;4963174;28;20038;-73
2022/06/20 07:02:53;;;;;;;6.22;2.60;;;;;;;24.82;nan;100242.34;4965807;28;20045;-69
2022/06/20 07:05:31;;;;;;;3.25;2.92;;;;;;;24.85;nan;100252.47;4965143;28;20042;-68
2022/06/20 07:08:22;;;;;;;5.70;3.28;;;;;;;24.95;nan;100238.66;4970513;28;20049;-73
2022/06/20 07:11:07;;;;;;;5.75;2.70;;;;;;;25.00;nan;100230.38;4968560;28;20043;-73
2022/06/20 07:13:51;;;;;;;4.18;2.72;;;;;;;25.09;nan;100222.22;4965650;28;20042;-73
2022/06/20 07:16:43;;;;;;;6.75;2.70;;;;;;;25.20;nan;100239.63;4968079;28;20042;-72
2022/06/20 07:19:12;;;;;;;2.63;2.30;;;;;;;25.24;nan;100223.59;4958068;28;20077;-73
2022/06/20 07:21:40;;;;;;;4.88;2.22;;;;;;;25.34;nan;100227.81;4965605;28;20035;-73
2022/06/20 07:24:19;;;;;;;5.75;2.58;;;;;;;25.43;nan;100250.88;4970114;28;20038;-73
2022/06/20 07:26:56;;;;;;;5.93;2.53;;;;;;;25.50;nan;100242.28;4960919;28;20032;-73
2022/06/20 07:29:28;;;;;;;3.88;2.53;;;;;;;25.61;nan;100176.03;4961481;28;20043;-68
2022/06/20 07:32:03;;;;;;;2.65;2.00;;;;;;;25.68;nan;100205.16;4969382;28;20130;-69
2022/06/20 07:34:36;;;;;;;5.78;2.70;;;;;;;25.73;nan;100215.75;4950541;28;20075;-69
2022/06/20 07:37:16;;;;;;;3.45;2.10;;;;;;;25.84;nan;100224.22;4974313;28;20444;-73
2022/06/20 07:39:58;;;;;;;5.13;2.33;;;;;;;25.87;nan;100181.19;4971648;28;20042;-73
2022/06/20 07:42:38;;;;;;;5.40;2.58;;;;;;;25.94;nan;100223.84;4970729;28;20035;-73
2022/06/20 07:45:10;;;;;;;5.82;2.63;;;;;;;26.00;nan;100249.50;4968881;28;20062;-73
2022/06/20 07:47:45;;;;;;;3.00;2.40;;;;;;;26.12;nan;100226.34;4970270;28;20428;-73
2022/06/20 07:50:39;;;;;;;3.35;2.20;;;;;;;26.20;nan;100209.28;4970365;28;20114;-73
2022/06/20 07:53:11;;;;;;;3.80;2.10;;;;;;;26.33;nan;100229.75;4969035;28;20042;-73
2022/06/20 07:55:41;;;;;;;2.50;2.10;;;;;;;26.42;nan;100210.78;4968648;28;20136;-69
2022/06/20 07:58:37;;;;;;;2.30;2.10;;;;;;;26.56;nan;100224.75;4953109;28;20031;-69
2022/06/20 08:01:37;;;;;;;5.63;2.30;;;;;;;26.64;nan;100202.25;4939453;28;20156;-73
2022/06/20 08:04:08;;;;;;;3.38;2.03;;;;;;;26.70;nan;100156.91;4966182;28;20512;-73
2022/06/20 08:07:13;;;;;;;8.80;2.53;;;;;;;26.80;nan;100191.56;4971039;28;20141;-73
2022/06/20 08:09:50;;;;;;;6.70;2.00;;;;;;;26.92;nan;100199.63;4970739;28;20469;-73
2022/06/20 08:12:39;;;;;;;3.30;1.90;;;;;;;27.00;nan;100202.56;4964317;28;20053;-72
2022/06/20 08:15:14;;;;;;;3.83;2.00;;;;;;;27.02;nan;100205.72;4962767;28;20038;-73
2022/06/20 08:17:39;;;;;;;6.22;1.88;;;;;;;27.04;nan;100233.97;4965091;28;20086;-73
2022/06/20 08:20:07;;;;;;;5.05;1.73;;;;;;;27.17;nan;100192.25;4972353;28;20047;-73
2022/06/20 08:22:48;;;;;;;3.75;1.80;;;;;;;27.25;nan;100249.28;4965765;28;20097;-73
2022/06/20 08:25:40;;;;;;;2.42;1.80;;;;;;;27.42;nan;100210.38;4940783;28;20401;-73
2022/06/20 08:28:18;;;;;;;2.55;1.80;;;;;;;27.54;nan;100203.00;4971317;28;20039;-73
2022/06/20 08:31:11;;;;;;;5.50;1.77;;;;;;;27.61;nan;100218.66;4974792;28;20166;-73
2022/06/20 08:33:50;;;;;;;3.05;1.63;;;;;;;27.59;nan;100201.97;4955181;28;20050;-73
2022/06/20 08:36:28;;;;;;;3.10;1.55;;;;;;;27.70;nan;100142.72;4967018;28;20074;-73
2022/06/20 08:39:44;;;;;;;3.70;1.85;;;;;;;27.78;nan;100191.28;4966680;28;20066;-73
2022/06/20 08:42:37;;;;;;;2.60;1.60;;;;;;;27.90;nan;100206.69;4894012;29;20189;-73
2022/06/20 08:45:21;;;;;;;1.60;1.50;;;;;;;27.93;nan;100191.69;4889263;29;20044;-72
2022/06/20 08:48:05;;;;;;;4.80;1.85;;;;;;;27.99;nan;100220.88;4889444;29;20046;-72
2022/06/20 08:50:52;;;;;;;2.70;1.50;;;;;;;28.08;nan;100198.25;4890176;29;20124;-73
2022/06/20 08:53:23;;;;;;;3.08;1.70;;;;;;;28.11;nan;100187.53;4876233;29;20188;-74
2022/06/20 08:56:06;;;;;;;4.72;1.77;;;;;;;28.26;nan;100193.28;4876881;29;20040;-73
2022/06/20 08:58:41;;;;;;;1.77;1.67;;;;;;;28.33;nan;100194.25;4889166;29;20045;-73
2022/06/20 09:01:20;;;;;;;1.98;1.50;;;;;;;28.37;nan;100178.88;4874502;29;20051;-73
2022/06/20 09:04:22;;;;;;;1.73;1.58;;;;;;;28.43;nan;100190.22;4889165;29;20127;-74
2022/06/20 09:06:57;;;;;;;3.92;1.60;;;;;;;28.47;nan;100185.72;4889692;29;20040;-72
2022/06/20 09:09:34;;;;;;;4.25;1.65;;;;;;;28.53;nan;100183.50;4873158;29;20127;-74
2022/06/20 09:12:02;;;;;;;1.73;1.50;;;;;;;28.59;nan;100191.03;4890721;29;20048;-73
2022/06/20 09:14:37;;;;;;;3.67;1.70;;;;;;;28.64;nan;100189.97;4889696;29;20047;-73
2022/06/20 09:17:25;;;;;;;3.05;1.80;;;;;;;28.69;nan;100148.28;4963003;28;20082;-73
2022/06/20 09:20:12;;;;;;;1.60;1.50;;;;;;;28.73;nan;100130.97;4973354;28;20035;-74
2022/06/20 09:23:05;;;;;;;2.70;1.80;;;;;;;28.83;nan;100137.75;4966539;28;20035;-73
2022/06/20 09:25:36;;;;;;;5.25;1.70;;;;;;;28.88;nan;100139.38;4967069;28;20043;-73
2022/06/20 09:28:07;;;;;;;3.70;1.70;;;;;;;28.94;nan;100146.88;4966284;28;20034;-73
2022/06/20 09:30:36;;;;;;;4.68;1.73;;;;;;;29.01;nan;100149.72;4966438;28;20099;-73
2022/06/20 09:33:24;;;;;;;2.70;1.80;;;;;;;29.07;nan;100154.91;4943722;28;20062;-72
2022/06/20 09:35:49;;;;;;;5.43;1.70;;;;;;;29.15;nan;100148.50;4965782;28;20030;-73
2022/06/20 09:38:14;;;;;;;2.30;2.00;;;;;;;29.16;nan;100148.13;4949854;28;20035;-72
2022/06/20 09:40:59;;;;;;;4.07;1.80;;;;;;;29.15;nan;100126.81;4950183;28;20039;-73
2022/06/20 09:43:35;;;;;;;1.92;1.48;;;;;;;29.20;nan;100138.13;4971510;28;20756;-73
2022/06/20 09:46:06;;;;;;;1.83;1.35;;;;;;;29.29;nan;100127.06;4965098;28;20053;-73
2022/06/20 09:48:45;;;;;;;3.25;1.52;;;;;;;29.43;nan;100102.94;4948125;28;20500;-73
2022/06/20 09:51:24;;;;;;;2.72;1.67;;;;;;;29.41;nan;100124.22;4967207;28;20039;-69
2022/06/20 09:54:02;;;;;;;3.80;1.80;;;;;;;29.46;nan;100137.47;4974680;28;20514;-69
2022/06/20 09:56:41;;;;;;;2.22;1.60;;;;;;;29.50;nan;100137.56;4971637;28;20041;-69
2022/06/20 09:59:22;;;;;;;2.08;1.50;;;;;;;29.53;nan;100098.06;4963326;28;20061;-73
2022/06/20 10:02:18;;;;;;;2.83;1.60;;;;;;;29.60;nan;100101.69;4972672;28;20034;-73
2022/06/20 10:05:12;;;;;;;1.98;1.50;;;;;;;29.60;nan;100058.25;4965101;28;20149;-73
2022/06/20 10:08:08;;;;;;;2.85;1.50;;;;;;;29.59;nan;100102.03;4966282;28;20090;-73
2022/06/20 10:10:50;;;;;;;2.20;1.50;;;;;;;29.72;nan;100111.59;4966022;28;20042;-72
2022/06/20 10:13:19;;;;;;;1.88;1.60;;;;;;;29.74;nan;100108.50;4948202;28;20045;-72
2022/06/20 10:16:05;;;;;;;1.50;1.40;;;;;;;29.65;nan;100152.16;4949881;28;20031;-72
2022/06/20 10:18:38;;;;;;;5.32;1.40;;;;;;;29.83;nan;100098.97;4966382;28;20038;-72
2022/06/20 10:21:21;;;;;;;3.33;1.50;;;;;;;29.84;nan;100106.00;4965888;28;20179;-72
2022/06/20 10:23:53;;;;;;;2.00;1.50;;;;;;;29.92;nan;100103.41;4951499;28;20039;-72
2022/06/20 10:26:36;;;;;;;2.10;1.35;;;;;;;29.98;nan;100100.03;4966970;28;20039;-72
2022/06/20 10:29:17;;;;;;;1.60;1.50;;;;;;;30.14;nan;100093.66;4967324;28;20046;-72
2022/06/20 10:32:11;;;;;;;2.10;1.30;;;;;;;30.21;nan;100078.25;4964502;28;20459;-72
2022/06/20 10:34:45;;;;;;;2.28;1.63;;;;;;;30.23;nan;100088.75;4930754;28;20049;-73
2022/06/20 10:37:25;;;;;;;1.48;1.38;;;;;;;30.26;nan;100036.44;4965118;28;20043;-72
2022/06/20 10:40:17;;;;;;;3.92;1.77;;;;;;;30.34;nan;100091.63;4967110;28;20117;-72
2022/06/20 10:42:57;;;;;;;1.50;1.38;;;;;;;30.36;nan;100090.16;4959858;28;20130;-73
2022/06/20 10:45:35;;;;;;;3.85;1.60;;;;;;;30.40;nan;100088.25;4972413;28;20035;-73
2022/06/20 10:48:13;;;;;;;3.28;1.60;;;;;;;30.41;nan;100091.75;4957369;28;20125;-73
2022/06/20 10:50:42;;;;;;;2.90;1.73;;;;;;;30.45;nan;100087.16;4953813;28;20039;-73
2022/06/20 10:53:16;;;;;;;1.77;1.65;;;;;;;30.48;nan;100086.41;4948894;28;20031;-72
2022/06/20 10:56:01;;;;;;;2.40;1.50;;;;;;;30.50;nan;100076.75;4961796;28;20035;-73
2022/06/20 10:58:38;;;;;;;2.90;1.52;;;;;;;30.57;nan;100103.22;4960299;28;20042;-72
2022/06/20 11:01:17;;;;;;;2.42;1.55;;;;;;;30.62;nan;100056.69;4963415;28;20086;-73
2022/06/20 11:03:43;;;;;;;6.32;1.80;;;;;;;30.65;nan;100080.44;4968311;28;20046;-73
2022/06/20 11:06:23;;;;;;;2.10;1.48;;;;;;;30.67;nan;100059.13;4970594;28;20382;-73
2022/06/20 11:09:22;;;;;;;2.88;1.50;;;;;;;30.71;nan;100054.47;4950649;28;20078;-73
2022/06/20 11:12:13;;;;;;;2.50;1.70;;;;;;;30.77;nan;100071.28;4970517;28;20047;-72
2022/06/20 11:15:08;;;;;;;2.67;1.55;;;;;;;30.76;nan;100047.16;4967798;28;20043;-72
2022/06/20 11:17:42;;;;;;;4.05;1.63;;;;;;;30.87;nan;100061.72;4968124;28;20093;-72
2022/06/20 11:20:40;;;;;;;1.65;1.48;;;;;;;30.90;nan;100069.13;4952958;28;20079;-72
2022/06/20 11:23:18;;;;;;;1.55;1.40;;;;;;;30.92;nan;100055.94;4972112;28;20113;-71
2022/06/20 11:25:46;;;;;;;3.20;1.63;;;;;;;30.95;nan;100042.38;4950969;28;20388;-72
2022/06/20 11:28:31;;;;;;;1.70;1.60;;;;;;;31.02;nan;100054.47;4967444;28;20035;-72
2022/06/20 11:31:01;;;;;;;3.42;1.63;;;;;;;31.06;nan;100042.50;4970066;28;20049;-72
2022/06/20 11:34:00;;;;;;;2.20;2.00;;;;;;;31.11;nan;100047.59;4967539;28;20108;-72
2022/06/20 11:36:16;;;;;;;1.80;1.70;;;;;;;31.13;nan;100017.31;4974352;28;20105;-68
2022/06/20 11:38:52;;;;;;;3.13;1.80;;;;;;;31.22;nan;100025.94;4971229;28;20035;-68
2022/06/20 11:41:27;;;;;;;2.05;1.50;;;;;;;31.26;nan;100031.41;4955594;28;20039;-68
2022/06/20 11:43:52;;;;;;;2.42;2.22;;;;;;;31.29;nan;100011.63;4972240;28;20050;-69
2022/06/20 11:46:26;;;;;;;1.40;1.30;;;;;;;31.30;nan;100048.56;4973469;28;20035;-68
2022/06/20 11:48:51;;;;;;;3.28;1.70;;;;;;;31.33;nan;100015.16;4974569;28;20319;-69
2022/06/20 11:51:25;;;;;;;2.05;1.80;;;;;;;31.33;nan;100047.81;4972346;28;20047;-69
2022/06/20 11:54:12;;;;;;;4.00;2.10;;;;;;;31.44;nan;100015.25;4975764;28;20042;-69
2022/06/20 11:56:48;;;;;;;3.33;1.63;;;;;;;31.52;nan;100006.78;4958175;28;20077;-72
2022/06/20 11:59:28;;;;;;;2.53;1.98;;;;;;;31.57;nan;100022.78;4972880;28;20034;-72
2022/06/20 12:02:17;;;;;;;2.13;1.70;;;;;;;31.57;nan;100011.88;4965293;28;20035;-72
2022/06/20 12:04:58;;;;;;;2.97;1.70;;;;;;;31.63;nan;99996.00;4960310;28;20054;-72
2022/06/20 12:07:43;;;;;;;3.88;1.80;;;;;;;31.69;nan;99980.09;4957011;28;20178;-72
2022/06/20 12:10:23;;;;;;;4.15;1.55;;;;;;;31.75;nan;99986.72;4973572;28;20039;-72
2022/06/20 12:13:03;;;;;;;3.33;1.90;;;;;;;31.82;nan;99988.72;4974844;28;20034;-73
2022/06/20 12:15:56;;;;;;;2.67;1.90;;;;;;;31.88;nan;99995.38;4957082;28;20484;-72
2022/06/20 12:23:18;;;;;;;2.20;1.83;;;;;;;31.84;nan;99976.28;4957385;28;20118;-72
2022/06/20 12:24:18;;;;;;;3.00;1.85;;;;;;;31.98;nan;99990.03;4974454;28;20031;-72
2022/06/20 12:26:43;;;;;;;4.15;1.90;;;;;;;32.02;nan;99929.38;4957671;28;20050;-67
2022/06/20 12:29:15;;;;;;;2.88;2.03;;;;;;;32.08;nan;99968.69;4957365;28;20074;-72
2022/06/20 12:31:44;;;;;;;2.53;1.80;;;;;;;32.05;nan;99961.28;4971297;28;20037;-72
2022/06/20 12:34:24;;;;;;;4.18;1.90;;;;;;;32.16;nan;99986.63;4967457;28;20042;-72
2022/06/20 12:36:57;;;;;;;2.38;1.60;;;;;;;32.15;nan;99971.44;4959354;28;20468;-72